Aeroporto :
LOGIN :

Iscrizione | Disclaimer

   EN    FR    IT 

 










Sommario :    VFR   VFR Marginale   IFR   IFR Intensivo   IFR Molto Intensivo
Visibilità : 
Base nubi : 
>= 8 km
>= 3000ft
5 / 8 km
1000 / 3000 ft
1500m / 5 km
500 / 1000 ft
800 / 1500m
200 / 500 ft
< 800m
< 200 ft
Simboli :   Temporali  Nebbia  Neve Forte  Precipitazioni Forti  Vento > 20 kt
SIGMETs :   Varie  Temporali  Ghiacco  Turbolenza  Onda orograficha  Ceneri Vulcaniche






- Altitudine del aeroporto : 25 ft
- Codice IATA : QCY


EGXC - RAF Coningsby

ULTIMO METAR :
  • 082250Z 25013KT 9999 -SHRA BKN024 OVC035 05/04 Q0993 RMK WHT

METARs OBSOLETI :
  • 082150Z 24015KT 9999 FEW018 BKN046 05/03 Q0992 RMK BLU
  • 082122Z 23014KT 9999 BKN018 05/03 Q0992 TEMPO FEW020 RMK WHT TEMPO BLU
  • 082050Z 22014KT 9999 BKN022 OVC040 05/03 Q0991 TEMPO FEW022 RMK WHT TEMPO BLU
  • 082020Z 22013KT 9999 BKN020 05/03 Q0991 TEMPO FEW020 RMK WHT TEMPO BLU

TAF TAF EGXC
Valido dal 08 a 21 ore il 09 a 15 ore UTC


081931Z 0821/0915 23012KT 9999 BKN030
TEMPO 0821/0903 BKN022
PROB30
TEMPO 0821/0902 4000 SHRA SCT012 BKN018
TEMPO 0908/0911 -RA BKN018



MetMap, La meteo Aeronautica in un colpo d'occhio ! - Copyright ORBIFLY Dicembre 2007 - Disclaimer

ORBIFLY MET'MAP TEAM :

Programmazione e sviluppo : Alexandra Zaïnal
Concezione : Baudouin d'Aumeries
Aiuto per la programmazione : Marc-Olivier Méhu
Supporto tecnico e logistico : Manuel Goepfert
Aiuto per la traduzione : Arnaldo La Scala

Contatto : metmap@orbifly.com




FONTI E CREDITI :

   NOAA